Danbury, Wisconsin
Current Conditions -  °F | °C
As of 1:15 PM on Friday 24 Oct 2014 (Local Time) from KRZN Reporting Station
Clear Clear  
Wind Chill: 65°   Ceiling: Unl
Heat Index: 65°   Visibility: 10mi
Dew Point: 51°   Wind: 10mph
Humidity: 59%   Direction: 190°S
Pressure: 29.83"   Gusts: NA
Location:  46.01°N, 92.37°W
Report Text: KRZN 241815Z AUTO 19009KT 10SM CLR 19/11 A2983 RMK AO2 T01860105
Loading
Personal Weather Stations






























Interactive Weather Map
Tropical Storm Tracking
New forecast layout! Learn more

10-Day Weather Forecast

Advertisements
Track Severe Weather on mobile